createdAt,value
2022-08-25T00:00:32.981Z,0.00
2022-08-25T00:01:33.207Z,0.00
2022-08-25T00:02:33.511Z,0.00
2022-08-25T00:03:36.000Z,0.00
2022-08-25T00:04:34.837Z,0.00
2022-08-25T00:05:34.066Z,0.00
2022-08-25T00:06:34.322Z,0.00
2022-08-25T00:07:34.549Z,0.00
2022-08-25T00:08:34.787Z,0.00
2022-08-25T00:09:35.016Z,0.00
2022-08-25T00:10:35.247Z,0.00
2022-08-25T00:11:35.478Z,0.00
2022-08-25T00:12:35.713Z,0.00
2022-08-25T00:13:35.952Z,0.00
2022-08-25T00:14:36.180Z,0.00
2022-08-25T00:15:36.474Z,0.00
2022-08-25T00:16:36.690Z,0.00
2022-08-25T00:17:36.936Z,0.00
2022-08-25T00:18:37.161Z,0.00
2022-08-25T00:19:37.453Z,0.00
2022-08-25T00:20:37.689Z,0.00
2022-08-25T00:21:38.872Z,0.00
2022-08-25T00:22:38.101Z,0.00
2022-08-25T00:23:38.321Z,0.00
2022-08-25T00:24:38.555Z,0.00
2022-08-25T00:25:38.802Z,0.00
2022-08-25T00:26:39.025Z,0.00
2022-08-25T00:27:39.254Z,0.00
2022-08-25T00:28:39.505Z,0.00
2022-08-25T00:29:39.739Z,0.00
2022-08-25T00:30:40.088Z,0.00
2022-08-25T00:31:40.317Z,0.00
2022-08-25T00:32:40.558Z,0.00
2022-08-25T00:33:40.793Z,0.00
2022-08-25T00:34:41.020Z,0.00
2022-08-25T00:35:41.245Z,0.00
2022-08-25T00:36:41.491Z,0.00
2022-08-25T00:37:41.710Z,0.00
2022-08-25T00:38:41.953Z,0.00
2022-08-25T00:39:42.184Z,0.00
2022-08-25T00:40:42.425Z,0.00
2022-08-25T00:41:42.654Z,0.00
2022-08-25T00:42:42.900Z,0.00
2022-08-25T00:43:43.138Z,0.00
2022-08-25T00:44:43.377Z,0.00
2022-08-25T00:45:43.613Z,0.00
2022-08-25T00:46:43.863Z,0.00
2022-08-25T00:47:44.487Z,0.00
2022-08-25T00:48:44.334Z,0.00
2022-08-25T00:49:44.570Z,0.00
2022-08-25T00:50:44.799Z,0.00
2022-08-25T00:51:45.020Z,0.00
2022-08-25T00:52:45.256Z,0.00
2022-08-25T00:53:45.495Z,0.00
2022-08-25T00:54:45.725Z,0.00
2022-08-25T00:55:45.949Z,0.00
2022-08-25T00:56:46.186Z,0.00
2022-08-25T00:57:47.412Z,0.00
2022-08-25T00:58:46.632Z,0.00
2022-08-25T00:59:46.868Z,0.00
2022-08-25T01:00:47.099Z,0.00
2022-08-25T01:01:47.381Z,0.00
2022-08-25T01:02:47.584Z,0.00
2022-08-25T01:03:47.810Z,0.00
2022-08-25T01:04:49.211Z,0.00
2022-08-25T01:05:48.292Z,0.00
2022-08-25T01:06:48.528Z,0.00
2022-08-25T01:07:48.789Z,0.00
2022-08-25T01:08:48.976Z,0.00
2022-08-25T01:09:49.199Z,0.00
2022-08-25T01:10:49.440Z,0.00
2022-08-25T01:11:49.710Z,0.00
2022-08-25T01:12:49.948Z,0.00
2022-08-25T01:13:50.178Z,0.00
2022-08-25T01:14:50.417Z,0.00
2022-08-25T01:15:50.695Z,0.00
2022-08-25T01:16:51.183Z,0.00
2022-08-25T01:17:51.140Z,0.00
2022-08-25T01:18:51.377Z,0.00
2022-08-25T01:19:51.607Z,0.00
2022-08-25T01:20:51.831Z,0.00
2022-08-25T01:21:52.051Z,0.00
2022-08-25T01:22:55.321Z,0.00
2022-08-25T01:23:52.567Z,0.00
2022-08-25T01:24:52.813Z,0.00
2022-08-25T01:25:53.032Z,0.00
2022-08-25T01:26:53.268Z,0.00
2022-08-25T01:27:53.503Z,0.00
2022-08-25T01:28:53.750Z,0.00
2022-08-25T01:29:53.980Z,0.00
2022-08-25T01:30:54.245Z,0.00
2022-08-25T01:31:54.396Z,0.00
2022-08-25T01:32:54.696Z,0.00
2022-08-25T01:33:54.895Z,0.00
2022-08-25T01:34:55.129Z,0.00
2022-08-25T01:35:55.354Z,0.00
2022-08-25T01:36:55.586Z,0.00
2022-08-25T01:37:55.837Z,0.00
2022-08-25T01:38:56.064Z,0.00
2022-08-25T01:39:56.348Z,0.00
2022-08-25T01:40:56.566Z,0.00
2022-08-25T01:41:56.790Z,0.00
2022-08-25T01:42:57.045Z,0.00
2022-08-25T01:43:57.266Z,0.00
2022-08-25T01:44:57.509Z,0.00
2022-08-25T01:45:57.762Z,0.00
2022-08-25T01:46:57.984Z,0.00
2022-08-25T01:47:58.226Z,0.00
2022-08-25T01:48:58.456Z,0.00
2022-08-25T01:49:58.694Z,0.00
2022-08-25T01:50:58.915Z,0.00
2022-08-25T01:51:59.145Z,0.00
2022-08-25T01:52:59.389Z,0.00
2022-08-25T01:53:59.614Z,0.00
2022-08-25T01:54:59.876Z,0.00
2022-08-25T01:56:00.114Z,0.00
2022-08-25T01:57:00.347Z,0.00
2022-08-25T01:58:00.604Z,0.00
2022-08-25T01:59:00.838Z,0.00
2022-08-25T02:00:01.069Z,0.00
2022-08-25T02:01:01.308Z,0.00
2022-08-25T02:02:01.530Z,0.00
2022-08-25T02:03:01.867Z,0.00
2022-08-25T02:04:01.999Z,0.00
2022-08-25T02:05:02.193Z,0.00
2022-08-25T02:06:04.227Z,0.00
2022-08-25T02:07:02.780Z,0.00
2022-08-25T02:08:03.121Z,0.00
2022-08-25T02:09:03.196Z,0.00
2022-08-25T02:10:03.675Z,0.00
2022-08-25T02:11:03.672Z,0.00
2022-08-25T02:12:03.898Z,0.00
2022-08-25T02:13:04.151Z,0.00
2022-08-25T02:14:04.384Z,0.00
2022-08-25T02:15:04.615Z,0.00
2022-08-25T02:16:04.845Z,0.00
2022-08-25T02:17:05.147Z,0.00
2022-08-25T02:18:05.538Z,0.00
2022-08-25T02:19:05.471Z,0.00
2022-08-25T02:20:05.711Z,0.00
2022-08-25T02:21:05.958Z,0.00
2022-08-25T02:22:06.191Z,0.00
2022-08-25T02:23:06.446Z,0.00
2022-08-25T02:24:06.687Z,0.00
2022-08-25T02:25:06.917Z,0.00
2022-08-25T02:26:07.157Z,0.00
2022-08-25T02:27:07.389Z,0.00
2022-08-25T02:28:07.657Z,0.00
2022-08-25T02:29:07.887Z,0.00
2022-08-25T02:30:08.125Z,0.00
2022-08-25T02:31:08.390Z,0.00
2022-08-25T02:32:08.599Z,0.00
2022-08-25T02:33:08.883Z,0.00
2022-08-25T02:34:09.113Z,0.00
2022-08-25T02:35:09.342Z,0.00
2022-08-25T02:36:09.577Z,0.00
2022-08-25T02:37:09.813Z,0.00
2022-08-25T02:38:10.072Z,0.00
2022-08-25T02:39:10.317Z,0.00
2022-08-25T02:40:10.619Z,0.00
2022-08-25T02:41:10.842Z,0.00
2022-08-25T02:42:11.076Z,0.00
2022-08-25T02:43:11.346Z,0.00
2022-08-25T02:44:11.572Z,0.00
2022-08-25T02:45:11.792Z,0.00
2022-08-25T02:46:12.124Z,0.00
2022-08-25T02:47:12.241Z,0.00
2022-08-25T02:48:12.503Z,0.00
2022-08-25T02:49:12.743Z,0.00
2022-08-25T02:50:12.974Z,0.00
2022-08-25T02:51:13.204Z,0.00
2022-08-25T02:52:13.436Z,0.00
2022-08-25T02:53:13.682Z,0.00
2022-08-25T02:54:13.919Z,0.00
2022-08-25T02:55:14.260Z,0.00
2022-08-25T02:56:14.368Z,0.00
2022-08-25T02:57:14.605Z,0.00
2022-08-25T02:58:14.850Z,0.00
2022-08-25T02:59:15.083Z,0.00
2022-08-25T03:00:15.319Z,0.00
2022-08-25T03:01:15.610Z,0.00
2022-08-25T03:02:15.761Z,0.00
2022-08-25T03:03:16.012Z,0.00
2022-08-25T03:04:16.249Z,0.00
2022-08-25T03:05:16.553Z,0.00
2022-08-25T03:06:16.715Z,0.00
2022-08-25T03:07:16.951Z,0.00
2022-08-25T03:08:17.155Z,0.00
2022-08-25T03:09:17.402Z,0.00
2022-08-25T03:10:17.629Z,0.00
2022-08-25T03:11:17.850Z,0.00
2022-08-25T03:12:18.089Z,0.00
2022-08-25T03:13:18.327Z,0.00
2022-08-25T03:14:18.561Z,0.00
2022-08-25T03:15:18.800Z,0.00
2022-08-25T03:16:19.157Z,0.00
2022-08-25T03:17:19.290Z,0.00
2022-08-25T03:18:19.522Z,0.00
2022-08-25T03:19:19.754Z,0.00
2022-08-25T03:20:19.997Z,0.00
2022-08-25T03:21:20.240Z,0.00
2022-08-25T03:22:20.464Z,0.00
2022-08-25T03:23:20.724Z,0.00
2022-08-25T03:24:21.007Z,0.00
2022-08-25T03:25:24.154Z,0.00
2022-08-25T03:26:21.418Z,0.00
2022-08-25T03:27:21.656Z,0.00
2022-08-25T03:28:25.010Z,0.00
2022-08-25T03:29:23.111Z,0.00
2022-08-25T03:30:22.353Z,0.00
2022-08-25T03:31:22.648Z,0.00
2022-08-25T03:32:22.877Z,0.00
2022-08-25T03:33:23.135Z,0.00
2022-08-25T03:34:23.399Z,4.00
2022-08-25T03:35:23.648Z,4.00
2022-08-25T03:36:23.889Z,0.00
2022-08-25T03:37:24.194Z,0.00
2022-08-25T03:38:24.339Z,4.00
2022-08-25T03:39:24.595Z,4.00
2022-08-25T03:40:24.904Z,4.00
2022-08-25T03:41:25.615Z,4.00
2022-08-25T03:42:25.273Z,4.00
2022-08-25T03:43:25.564Z,4.00
2022-08-25T03:44:25.822Z,8.00
2022-08-25T03:45:26.092Z,12.00
2022-08-25T03:46:26.363Z,12.00
2022-08-25T03:47:26.616Z,16.00
2022-08-25T03:48:26.865Z,20.00
2022-08-25T03:49:27.115Z,20.00
2022-08-25T03:50:27.377Z,24.00
2022-08-25T03:51:27.625Z,24.00
2022-08-25T03:52:27.873Z,32.00
2022-08-25T03:53:28.137Z,40.00
2022-08-25T03:54:28.383Z,40.00
2022-08-25T03:55:28.628Z,48.00
2022-08-25T03:56:28.904Z,52.00
2022-08-25T03:57:29.136Z,60.00
2022-08-25T03:58:29.393Z,68.00
2022-08-25T03:59:29.626Z,76.00
2022-08-25T04:00:29.861Z,84.00
2022-08-25T04:01:30.220Z,96.00
2022-08-25T04:02:30.414Z,104.00
2022-08-25T04:03:30.667Z,116.00
2022-08-25T04:04:30.888Z,128.00
2022-08-25T04:05:31.111Z,136.00
2022-08-25T04:06:31.404Z,148.00
2022-08-25T04:07:31.949Z,160.00
2022-08-25T04:08:31.994Z,176.00
2022-08-25T04:09:35.225Z,192.00
2022-08-25T04:10:32.485Z,204.00
2022-08-25T04:11:32.729Z,220.00
2022-08-25T04:12:33.002Z,236.00
2022-08-25T04:13:33.280Z,252.00
2022-08-25T04:14:33.537Z,268.00
2022-08-25T04:15:33.782Z,288.00
2022-08-25T04:16:34.067Z,304.00
2022-08-25T04:17:34.389Z,324.00
2022-08-25T04:18:34.526Z,344.00
2022-08-25T04:19:34.784Z,360.00
2022-08-25T04:20:35.037Z,384.00
2022-08-25T04:21:35.323Z,404.00
2022-08-25T04:22:36.718Z,424.00
2022-08-25T04:23:35.866Z,444.00
2022-08-25T04:24:36.111Z,464.00
2022-08-25T04:25:43.352Z,488.00
2022-08-25T04:26:37.312Z,508.00
2022-08-25T04:27:39.481Z,532.00
2022-08-25T04:28:37.061Z,556.00
2022-08-25T04:29:37.292Z,576.00
2022-08-25T04:30:37.520Z,600.00
2022-08-25T04:31:37.794Z,624.00
2022-08-25T04:32:38.024Z,648.00
2022-08-25T04:33:38.279Z,672.00
2022-08-25T04:34:38.511Z,700.00
2022-08-25T04:35:38.741Z,724.00
2022-08-25T04:36:38.994Z,748.00
2022-08-25T04:37:39.235Z,776.00
2022-08-25T04:38:39.500Z,800.00
2022-08-25T04:39:39.771Z,828.00
2022-08-25T04:40:40.007Z,852.00
2022-08-25T04:41:40.233Z,876.00
2022-08-25T04:42:40.485Z,904.00
2022-08-25T04:43:40.719Z,928.00
2022-08-25T04:44:40.951Z,952.00
2022-08-25T04:45:41.261Z,976.00
2022-08-25T04:46:41.429Z,1004.00
2022-08-25T04:47:41.679Z,1028.00
2022-08-25T04:48:41.940Z,1056.00
2022-08-25T04:49:42.188Z,1080.00
2022-08-25T04:50:42.426Z,1108.00
2022-08-25T04:51:42.695Z,1136.00
2022-08-25T04:52:42.919Z,1164.00
2022-08-25T04:53:43.145Z,1188.00
2022-08-25T04:54:43.380Z,1216.00
2022-08-25T04:55:43.612Z,1240.00
2022-08-25T04:56:43.839Z,1264.00
2022-08-25T04:57:44.077Z,1292.00
2022-08-25T04:58:44.311Z,1312.00
2022-08-25T04:59:44.536Z,1340.00
2022-08-25T05:00:44.811Z,1364.00
2022-08-25T05:01:45.028Z,1388.00
2022-08-25T05:02:45.308Z,1412.00
2022-08-25T05:03:45.692Z,1440.00
2022-08-25T05:04:45.882Z,1468.00
2022-08-25T05:05:45.928Z,1488.00
2022-08-25T05:06:46.173Z,1520.00
2022-08-25T05:07:46.412Z,1548.00
2022-08-25T05:08:47.479Z,1576.00
2022-08-25T05:09:46.920Z,1608.00
2022-08-25T05:10:47.147Z,1628.00
2022-08-25T05:11:47.404Z,1668.00
2022-08-25T05:12:47.656Z,1704.00
2022-08-25T05:13:51.256Z,1740.00
2022-08-25T05:14:48.116Z,1748.00
2022-08-25T05:15:48.348Z,1768.00
2022-08-25T05:16:48.687Z,1808.00
2022-08-25T05:17:51.641Z,1832.00
2022-08-25T05:18:50.017Z,1876.00
2022-08-25T05:19:49.275Z,1928.00
2022-08-25T05:20:49.523Z,1944.00
2022-08-25T05:21:49.738Z,2020.00
2022-08-25T05:22:49.972Z,2028.00
2022-08-25T05:23:50.194Z,2088.00
2022-08-25T05:24:50.441Z,2096.00
2022-08-25T05:25:50.668Z,2092.00
2022-08-25T05:26:50.905Z,2160.00
2022-08-25T05:27:51.133Z,2144.00
2022-08-25T05:28:51.358Z,2156.00
2022-08-25T05:29:51.608Z,2232.00
2022-08-25T05:30:51.832Z,2224.00
2022-08-25T05:31:52.129Z,2524.00
2022-08-25T05:32:52.345Z,2380.00
2022-08-25T05:33:52.600Z,2384.00
2022-08-25T05:34:52.835Z,2360.00
2022-08-25T05:35:53.057Z,2344.00
2022-08-25T05:36:53.298Z,2568.00
2022-08-25T05:37:53.517Z,2736.00
2022-08-25T05:38:53.776Z,2524.00
2022-08-25T05:39:54.102Z,2744.00
2022-08-25T05:40:54.307Z,2632.00
2022-08-25T05:41:54.520Z,2796.00
2022-08-25T05:42:54.750Z,2636.00
2022-08-25T05:43:54.994Z,2588.00
2022-08-25T05:44:55.224Z,2460.00
2022-08-25T05:45:55.487Z,2428.00
2022-08-25T05:46:55.690Z,2392.00
2022-08-25T05:47:55.917Z,2236.00
2022-08-25T05:48:56.186Z,2120.00
2022-08-25T05:49:56.393Z,2208.00
2022-08-25T05:50:56.677Z,2232.00
2022-08-25T05:51:56.918Z,2320.00
2022-08-25T05:52:57.168Z,2384.00
2022-08-25T05:53:57.380Z,2320.00
2022-08-25T05:54:57.627Z,2412.00
2022-08-25T05:55:57.837Z,2380.00
2022-08-25T05:56:58.070Z,2520.00
2022-08-25T05:57:58.248Z,2444.00
2022-08-25T05:58:58.495Z,2528.00
2022-08-25T05:59:58.716Z,2620.00
2022-08-25T06:00:59.017Z,2660.00
2022-08-25T06:01:59.212Z,2656.00
2022-08-25T06:02:59.454Z,2600.00
2022-08-25T06:03:59.730Z,2432.00
2022-08-25T06:04:59.857Z,2544.00
2022-08-25T06:06:00.079Z,2668.00
2022-08-25T06:07:00.300Z,2524.00
2022-08-25T06:08:00.516Z,2588.00
2022-08-25T06:09:00.775Z,2568.00
2022-08-25T06:10:00.988Z,2536.00
2022-08-25T06:11:01.224Z,2524.00
2022-08-25T06:12:01.446Z,2732.00
2022-08-25T06:13:01.692Z,2844.00
2022-08-25T06:14:01.919Z,2924.00
2022-08-25T06:15:02.144Z,2948.00
2022-08-25T06:16:02.422Z,2892.00
2022-08-25T06:17:02.623Z,2784.00
2022-08-25T06:18:03.485Z,2840.00
2022-08-25T06:19:03.072Z,2804.00
2022-08-25T06:20:03.313Z,2804.00
2022-08-25T06:21:03.526Z,2892.00
2022-08-25T06:22:03.759Z,2944.00
2022-08-25T06:23:03.977Z,2772.00
2022-08-25T06:24:04.214Z,2980.00
2022-08-25T06:25:04.443Z,2936.00
2022-08-25T06:26:04.672Z,3216.00
2022-08-25T06:27:04.881Z,3232.00
2022-08-25T06:28:05.342Z,2996.00
2022-08-25T06:29:05.318Z,2992.00
2022-08-25T06:30:07.891Z,2992.00
2022-08-25T06:31:05.802Z,3276.00
2022-08-25T06:32:06.024Z,3332.00
2022-08-25T06:33:06.772Z,3096.00
2022-08-25T06:34:06.450Z,2988.00
2022-08-25T06:35:06.676Z,3212.00
2022-08-25T06:36:06.915Z,3344.00
2022-08-25T06:37:07.139Z,3004.00
2022-08-25T06:38:07.495Z,2992.00
2022-08-25T06:39:07.628Z,2972.00
2022-08-25T06:40:07.894Z,2772.00
2022-08-25T06:41:08.085Z,2760.00
2022-08-25T06:42:08.310Z,2800.00
2022-08-25T06:43:08.535Z,2760.00
2022-08-25T06:44:08.765Z,2672.00
2022-08-25T06:45:08.979Z,2848.00
2022-08-25T06:46:09.199Z,2852.00
2022-08-25T06:47:09.451Z,2784.00
2022-08-25T06:48:09.671Z,2684.00
2022-08-25T06:49:09.903Z,2796.00
2022-08-25T06:50:10.128Z,2872.00
2022-08-25T06:51:10.346Z,2904.00
2022-08-25T06:52:10.569Z,3076.00
2022-08-25T06:53:10.788Z,3240.00
2022-08-25T06:54:11.047Z,3272.00
2022-08-25T06:55:11.262Z,3128.00
2022-08-25T06:56:11.483Z,3208.00
2022-08-25T06:57:11.688Z,3260.00
2022-08-25T06:58:11.987Z,3340.00
2022-08-25T06:59:12.228Z,3428.00
2022-08-25T07:00:12.606Z,3608.00
2022-08-25T07:01:19.594Z,3608.00
2022-08-25T07:02:13.904Z,3712.00
2022-08-25T07:03:13.106Z,3572.00
2022-08-25T07:04:13.474Z,3712.00
2022-08-25T07:05:26.711Z,3396.00
2022-08-25T07:06:14.673Z,3444.00
2022-08-25T07:07:13.834Z,3588.00
2022-08-25T07:08:14.059Z,3652.00
2022-08-25T07:09:14.303Z,3600.00
2022-08-25T07:10:14.523Z,3584.00
2022-08-25T07:11:16.553Z,3712.00
2022-08-25T07:12:14.901Z,3688.00
2022-08-25T07:13:15.122Z,3560.00
2022-08-25T07:14:15.365Z,3628.00
2022-08-25T07:15:20.386Z,4036.00
2022-08-25T07:16:16.770Z,3900.00
2022-08-25T07:17:15.945Z,3968.00
2022-08-25T07:18:16.172Z,3816.00
2022-08-25T07:19:16.425Z,3988.00
2022-08-25T07:20:16.644Z,3648.00
2022-08-25T07:21:17.447Z,3716.00
2022-08-25T07:22:17.029Z,4184.00
2022-08-25T07:23:17.204Z,4172.00
2022-08-25T07:24:17.451Z,4072.00
2022-08-25T07:25:17.782Z,3920.00
2022-08-25T07:27:19.029Z,4024.00
2022-08-25T07:28:18.238Z,4136.00
2022-08-25T07:29:18.506Z,3980.00
2022-08-25T07:30:18.708Z,3908.00
2022-08-25T07:31:18.985Z,3964.00
2022-08-25T07:32:19.192Z,4228.00
2022-08-25T07:33:19.430Z,4196.00
2022-08-25T07:34:19.662Z,4004.00
2022-08-25T07:35:19.903Z,3872.00
2022-08-25T07:36:20.132Z,3992.00
2022-08-25T07:37:38.328Z,4388.00
2022-08-25T07:38:21.562Z,4564.00
2022-08-25T07:39:21.945Z,4712.00
2022-08-25T07:40:21.069Z,4924.00
2022-08-25T07:41:21.158Z,5024.00
2022-08-25T07:42:21.372Z,5920.00
2022-08-25T07:43:21.597Z,5116.00
2022-08-25T07:44:21.780Z,5064.00
2022-08-25T07:45:22.011Z,5368.00
2022-08-25T07:46:22.282Z,5524.00
2022-08-25T07:47:23.046Z,5680.00
2022-08-25T07:48:22.656Z,6232.00
2022-08-25T07:49:23.333Z,6312.00
2022-08-25T07:50:23.082Z,5852.00
2022-08-25T07:51:23.325Z,5968.00
2022-08-25T07:52:23.513Z,6212.00
2022-08-25T07:53:23.722Z,6176.00
2022-08-25T07:54:23.952Z,6112.00
2022-08-25T07:55:25.111Z,6480.00
2022-08-25T07:56:24.321Z,6796.00
2022-08-25T07:57:24.592Z,7724.00
2022-08-25T07:58:24.804Z,7376.00
2022-08-25T07:59:25.023Z,6916.00
2022-08-25T08:00:25.219Z,6424.00
2022-08-25T08:01:25.516Z,6528.00
2022-08-25T08:02:25.718Z,6412.00
2022-08-25T08:03:44.624Z,5788.00
2022-08-25T08:04:27.182Z,6332.00
2022-08-25T08:05:26.305Z,6888.00
2022-08-25T08:06:26.505Z,7196.00
2022-08-25T08:07:43.230Z,6360.00
2022-08-25T08:08:27.864Z,6244.00
2022-08-25T08:09:27.116Z,5932.00
2022-08-25T08:11:03.311Z,5924.00
2022-08-25T08:11:28.520Z,6004.00
2022-08-25T08:12:27.711Z,5748.00
2022-08-25T08:13:27.904Z,5816.00
2022-08-25T08:14:28.114Z,5640.00
2022-08-25T08:15:29.571Z,5828.00
2022-08-25T08:16:28.588Z,6036.00
2022-08-25T08:17:28.788Z,6924.00
2022-08-25T08:18:29.059Z,7468.00
2022-08-25T08:19:29.149Z,7592.00
2022-08-25T08:20:29.386Z,8756.00
2022-08-25T08:21:29.572Z,10096.00
2022-08-25T08:22:29.787Z,12520.00
2022-08-25T08:23:30.042Z,14316.00
2022-08-25T08:24:44.575Z,15264.00
2022-08-25T08:25:31.400Z,11556.00
2022-08-25T08:26:55.346Z,12144.00
2022-08-25T08:27:31.805Z,15648.00
2022-08-25T08:28:31.025Z,13548.00
2022-08-25T08:29:31.227Z,11764.00
2022-08-25T08:30:31.467Z,10980.00
2022-08-25T08:31:31.679Z,9372.00
2022-08-25T08:32:53.005Z,9148.00
2022-08-25T08:33:33.066Z,8744.00
2022-08-25T08:34:33.205Z,9496.00
2022-08-25T08:35:32.382Z,15744.00
2022-08-25T08:36:32.573Z,12044.00
2022-08-25T08:37:32.764Z,18624.00
2022-08-25T08:38:32.891Z,14720.00
2022-08-25T08:39:33.059Z,20320.00
2022-08-25T08:40:33.297Z,21664.00
2022-08-25T08:41:40.092Z,44064.00
2022-08-25T08:42:34.546Z,33632.00
2022-08-25T08:43:33.711Z,19104.00
2022-08-25T08:44:33.946Z,41920.00
2022-08-25T08:45:35.594Z,63008.00
2022-08-25T08:46:35.275Z,25952.00
2022-08-25T08:47:34.410Z,15392.00
2022-08-25T08:48:34.591Z,62688.00
2022-08-25T08:49:34.758Z,12192.00
2022-08-25T08:50:34.921Z,63232.00
2022-08-25T08:51:35.043Z,61120.00
2022-08-25T08:52:35.234Z,55744.00
2022-08-25T08:53:35.381Z,62976.00
2022-08-25T08:54:36.200Z,64864.00
2022-08-25T08:55:35.651Z,65984.00
2022-08-25T08:56:35.822Z,28704.00
2022-08-25T08:57:36.059Z,64032.00
2022-08-25T08:58:36.106Z,63072.00
2022-08-25T08:59:36.247Z,63104.00
2022-08-25T09:00:36.387Z,63040.00
2022-08-25T09:01:36.622Z,57792.00
2022-08-25T09:02:39.396Z,61120.00
2022-08-25T09:03:39.581Z,64448.00
2022-08-25T09:04:36.858Z,62240.00
2022-08-25T09:05:41.860Z,60576.00
2022-08-25T09:06:38.057Z,15240.00
2022-08-25T09:07:37.210Z,27328.00
2022-08-25T09:08:38.300Z,42272.00
2022-08-25T09:09:38.381Z,43072.00
2022-08-25T09:10:37.461Z,52672.00
2022-08-25T09:11:37.570Z,56736.00
2022-08-25T09:12:37.783Z,35200.00
2022-08-25T09:13:37.791Z,18592.00
2022-08-25T09:14:37.859Z,10160.00
2022-08-25T09:15:41.038Z,10568.00
2022-08-25T09:16:38.181Z,36480.00
2022-08-25T09:17:38.237Z,16608.00
2022-08-25T09:18:41.196Z,16608.00
2022-08-25T09:19:41.928Z,25888.00
2022-08-25T09:20:38.522Z,16864.00
2022-08-25T09:21:38.628Z,21728.00
2022-08-25T09:22:38.784Z,30624.00
2022-08-25T09:23:38.926Z,20128.00
2022-08-25T09:24:39.086Z,20160.00
2022-08-25T09:25:52.527Z,28640.00
2022-08-25T09:26:40.304Z,28256.00
2022-08-25T09:27:39.461Z,25600.00
2022-08-25T09:28:39.615Z,67616.00
2022-08-25T09:29:39.762Z,20832.00
2022-08-25T09:30:39.904Z,15424.00
2022-08-25T09:31:40.140Z,12528.00
2022-08-25T09:32:40.195Z,14644.00
2022-08-25T09:33:40.342Z,9392.00
2022-08-25T09:34:40.457Z,15744.00
2022-08-25T09:35:40.605Z,10172.00
2022-08-25T09:36:40.763Z,10400.00
2022-08-25T09:37:40.927Z,11060.00
2022-08-25T09:38:41.112Z,14052.00
2022-08-25T09:39:41.267Z,19808.00
2022-08-25T09:40:41.450Z,18592.00
2022-08-25T09:41:41.586Z,17568.00
2022-08-25T09:42:41.781Z,18528.00
2022-08-25T09:43:41.930Z,15200.00
2022-08-25T09:44:42.104Z,12588.00
2022-08-25T09:45:42.545Z,11748.00
2022-08-25T09:46:42.442Z,16480.00
2022-08-25T09:47:42.620Z,70464.00
2022-08-25T09:48:42.769Z,67968.00
2022-08-25T09:49:42.949Z,19104.00
2022-08-25T09:50:46.794Z,38496.00
2022-08-25T09:51:43.443Z,77248.00
2022-08-25T09:52:43.371Z,76320.00
2022-08-25T09:53:43.504Z,75872.00
2022-08-25T09:54:46.687Z,74368.00
2022-08-25T09:55:43.804Z,76064.00
2022-08-25T09:56:43.981Z,72672.00
2022-08-25T09:57:44.131Z,76064.00
2022-08-25T09:58:44.247Z,73984.00
2022-08-25T09:59:57.375Z,73472.00
2022-08-25T10:00:45.457Z,72928.00
2022-08-25T10:01:44.634Z,70432.00
2022-08-25T10:02:44.665Z,70720.00
2022-08-25T10:03:44.763Z,71840.00
2022-08-25T10:04:44.915Z,69664.00
2022-08-25T10:05:44.913Z,71872.00
2022-08-25T10:06:45.000Z,38496.00
2022-08-25T10:07:45.625Z,76640.00
2022-08-25T10:08:46.105Z,65792.00
2022-08-25T10:09:45.189Z,19424.00
2022-08-25T10:10:45.262Z,68288.00
2022-08-25T10:11:45.354Z,19488.00
2022-08-25T10:12:45.469Z,71456.00
2022-08-25T10:13:46.497Z,14600.00
2022-08-25T10:14:45.581Z,14548.00
2022-08-25T10:15:45.734Z,13432.00
2022-08-25T10:16:47.046Z,14020.00
2022-08-25T10:17:45.961Z,15004.00
2022-08-25T10:18:45.971Z,13544.00
2022-08-25T10:19:46.079Z,27648.00
2022-08-25T10:20:46.200Z,20640.00
2022-08-25T10:21:46.341Z,22464.00
2022-08-25T10:22:48.300Z,17952.00
2022-08-25T10:23:46.566Z,72992.00
2022-08-25T10:24:46.626Z,64224.00
2022-08-25T10:25:57.719Z,69472.00
2022-08-25T10:26:49.504Z,32896.00
2022-08-25T10:27:49.666Z,22720.00
2022-08-25T10:28:46.994Z,73984.00
2022-08-25T10:29:47.123Z,19136.00
2022-08-25T10:30:47.274Z,15552.00
2022-08-25T10:31:47.388Z,14256.00
2022-08-25T10:32:47.524Z,23040.00
2022-08-25T10:33:47.642Z,14220.00
2022-08-25T10:34:51.777Z,14880.00
2022-08-25T10:35:47.848Z,28000.00
2022-08-25T10:36:47.955Z,18240.00
2022-08-25T10:37:48.054Z,36768.00
2022-08-25T10:38:48.146Z,72896.00
2022-08-25T10:39:54.893Z,70176.00
2022-08-25T10:40:49.338Z,72768.00
2022-08-25T10:41:48.479Z,13228.00
2022-08-25T10:42:48.615Z,16448.00
2022-08-25T10:43:48.644Z,26496.00
2022-08-25T10:44:48.745Z,16000.00
2022-08-25T10:45:48.954Z,36960.00
2022-08-25T10:46:48.946Z,73792.00
2022-08-25T10:47:49.096Z,15200.00
2022-08-25T10:48:49.230Z,16672.00
2022-08-25T10:49:50.127Z,15424.00
2022-08-25T10:50:49.445Z,21120.00
2022-08-25T10:51:51.001Z,18208.00
2022-08-25T10:52:49.670Z,13456.00
2022-08-25T10:53:49.803Z,15424.00
2022-08-25T10:54:49.948Z,16000.00
2022-08-25T10:55:50.366Z,19872.00
2022-08-25T10:56:50.210Z,21440.00
2022-08-25T10:57:50.330Z,59072.00
2022-08-25T10:58:50.464Z,21920.00
2022-08-25T10:59:50.603Z,26112.00
2022-08-25T11:00:50.735Z,32864.00
2022-08-25T11:01:53.687Z,27712.00
2022-08-25T11:02:50.973Z,40960.00
2022-08-25T11:03:51.195Z,22624.00
2022-08-25T11:04:51.231Z,61760.00
2022-08-25T11:05:51.318Z,67744.00
2022-08-25T11:06:54.683Z,71328.00
2022-08-25T11:07:51.588Z,69600.00
2022-08-25T11:08:51.706Z,71680.00
2022-08-25T11:09:51.832Z,73504.00
2022-08-25T11:10:52.059Z,67136.00
2022-08-25T11:11:52.089Z,22368.00
2022-08-25T11:12:52.180Z,61504.00
2022-08-25T11:13:52.253Z,37504.00
2022-08-25T11:14:52.365Z,70400.00
2022-08-25T11:16:15.550Z,72544.00
2022-08-25T11:16:53.611Z,78400.00
2022-08-25T11:17:52.563Z,74272.00
2022-08-25T11:18:52.655Z,72928.00
2022-08-25T11:19:52.740Z,70880.00
2022-08-25T11:20:52.851Z,70848.00
2022-08-25T11:21:52.931Z,73568.00
2022-08-25T11:22:53.027Z,70592.00
2022-08-25T11:23:53.105Z,52576.00
2022-08-25T11:24:53.196Z,70464.00
2022-08-25T11:25:53.213Z,70112.00
2022-08-25T11:26:53.308Z,68960.00
2022-08-25T11:27:53.404Z,21376.00
2022-08-25T11:28:53.483Z,74016.00
2022-08-25T11:29:53.588Z,47360.00
2022-08-25T11:30:53.748Z,73472.00
2022-08-25T11:31:54.060Z,76064.00
2022-08-25T11:32:53.859Z,25504.00
2022-08-25T11:33:53.952Z,15744.00
2022-08-25T11:34:53.981Z,39840.00
2022-08-25T11:35:54.092Z,21248.00
2022-08-25T11:36:54.189Z,13724.00
2022-08-25T11:37:54.301Z,59712.00
2022-08-25T11:38:54.403Z,15392.00
2022-08-25T11:39:54.545Z,16512.00
2022-08-25T11:40:54.643Z,16640.00
2022-08-25T11:41:54.759Z,25600.00
2022-08-25T11:42:54.857Z,45792.00
2022-08-25T11:43:54.988Z,73600.00
2022-08-25T11:44:55.202Z,74752.00
2022-08-25T11:45:55.251Z,75776.00
2022-08-25T11:46:55.343Z,78208.00
2022-08-25T11:47:55.497Z,76576.00
2022-08-25T11:48:55.602Z,77216.00
2022-08-25T11:49:55.726Z,75328.00
2022-08-25T11:50:55.827Z,76640.00
2022-08-25T11:51:55.943Z,43456.00
2022-08-25T11:52:57.081Z,84576.00
2022-08-25T11:53:56.092Z,79840.00
2022-08-25T11:54:56.145Z,16192.00
2022-08-25T11:55:56.248Z,13216.00
2022-08-25T11:56:56.343Z,12952.00
2022-08-25T11:57:56.396Z,14132.00
2022-08-25T11:58:56.446Z,25216.00
2022-08-25T11:59:56.526Z,18272.00
2022-08-25T12:00:56.625Z,14540.00
2022-08-25T12:01:56.717Z,24384.00
2022-08-25T12:03:00.909Z,22336.00
2022-08-25T12:03:57.027Z,17152.00
2022-08-25T12:04:57.022Z,17056.00
2022-08-25T12:05:57.020Z,17024.00
2022-08-25T12:06:57.104Z,16288.00
2022-08-25T12:07:57.207Z,13228.00
2022-08-25T12:08:57.687Z,17024.00
2022-08-25T12:09:57.390Z,17344.00
2022-08-25T12:10:57.486Z,16288.00
2022-08-25T12:11:57.631Z,18368.00
2022-08-25T12:12:57.735Z,17280.00
2022-08-25T12:13:57.895Z,11868.00
2022-08-25T12:14:57.981Z,12116.00
2022-08-25T12:15:58.074Z,11244.00
2022-08-25T12:16:58.191Z,10372.00
2022-08-25T12:17:58.292Z,10144.00
2022-08-25T12:18:58.418Z,10304.00
2022-08-25T12:19:58.534Z,10108.00
2022-08-25T12:20:58.642Z,10088.00
2022-08-25T12:21:58.771Z,10168.00
2022-08-25T12:22:58.974Z,10580.00
2022-08-25T12:23:59.018Z,11184.00
2022-08-25T12:25:00.108Z,23520.00